createdAt,value
2023-05-10T00:00:15.005Z,96022.88
2023-05-10T00:02:43.015Z,96023.13
2023-05-10T00:05:10.813Z,96017.28
2023-05-10T00:07:38.397Z,96023.34
2023-05-10T00:10:06.807Z,96024.38
2023-05-10T00:12:35.661Z,96018.88
2023-05-10T00:15:03.807Z,96013.13
2023-05-10T00:17:31.449Z,96023.00
2023-05-10T00:19:59.081Z,96025.88
2023-05-10T00:22:26.749Z,96012.38
2023-05-10T00:24:54.350Z,96009.75
2023-05-10T00:27:21.915Z,96010.53
2023-05-10T00:29:51.073Z,96013.75
2023-05-10T00:32:18.779Z,96011.69
2023-05-10T00:34:46.560Z,96005.94
2023-05-10T00:37:14.118Z,96019.66
2023-05-10T00:39:41.742Z,96019.66
2023-05-10T00:42:09.383Z,96021.16
2023-05-10T00:44:37.112Z,96021.16
2023-05-10T00:47:06.275Z,96019.78
2023-05-10T00:49:34.076Z,96012.16
2023-05-10T00:52:02.942Z,96017.63
2023-05-10T00:54:30.971Z,96019.69
2023-05-10T00:56:58.543Z,96018.66
2023-05-10T00:59:26.429Z,96022.34
2023-05-10T01:01:54.296Z,96018.09
2023-05-10T01:04:26.592Z,96019.03
2023-05-10T01:06:54.787Z,96021.53
2023-05-10T01:09:23.169Z,96021.66
2023-05-10T01:11:51.407Z,96018.16
2023-05-10T01:14:21.010Z,96030.03
2023-05-10T01:16:50.621Z,96021.47
2023-05-10T01:19:25.359Z,96032.34
2023-05-10T01:22:04.108Z,96026.03
2023-05-10T01:25:12.450Z,96034.28
2023-05-10T01:28:16.984Z,96032.66
2023-05-10T01:31:08.845Z,96034.75
2023-05-10T01:33:43.520Z,96036.56
2023-05-10T01:36:18.290Z,96038.03
2023-05-10T01:38:52.613Z,96039.66
2023-05-10T01:41:26.969Z,96038.84
2023-05-10T01:43:59.380Z,96044.13
2023-05-10T01:46:29.471Z,96047.44
2023-05-10T01:49:01.297Z,96052.25
2023-05-10T01:51:37.617Z,96057.22
2023-05-10T01:54:07.644Z,96064.53
2023-05-10T01:56:38.519Z,96066.69
2023-05-10T01:59:10.537Z,96060.50
2023-05-10T02:01:39.278Z,96067.88
2023-05-10T02:04:10.132Z,96056.91
2023-05-10T02:06:40.410Z,96065.09
2023-05-10T02:09:08.971Z,96066.81
2023-05-10T02:11:39.476Z,96074.91
2023-05-10T02:14:09.844Z,96071.47
2023-05-10T02:16:38.718Z,96079.56
2023-05-10T02:19:09.494Z,96081.63
2023-05-10T02:21:37.809Z,96092.78
2023-05-10T02:24:07.301Z,96090.03
2023-05-10T02:26:37.098Z,96084.22
2023-05-10T02:29:06.463Z,96093.53
2023-05-10T02:31:35.275Z,96092.16
2023-05-10T02:34:04.592Z,96096.00
2023-05-10T02:36:34.451Z,96093.25
2023-05-10T02:39:03.946Z,96090.28
2023-05-10T02:41:34.270Z,96104.88
2023-05-10T02:44:04.681Z,96090.34
2023-05-10T02:46:32.584Z,96101.66
2023-05-10T02:49:00.349Z,96097.22
2023-05-10T02:51:32.756Z,96107.50
2023-05-10T02:54:09.283Z,96103.25
2023-05-10T02:56:42.664Z,96106.09
2023-05-10T02:59:10.347Z,96107.00
2023-05-10T03:01:37.946Z,96108.66
2023-05-10T03:04:06.209Z,96112.13
2023-05-10T03:06:34.009Z,96117.69
2023-05-10T03:09:04.318Z,96117.72
2023-05-10T03:11:43.860Z,96120.00
2023-05-10T03:14:23.260Z,96118.03
2023-05-10T03:16:58.553Z,96127.75
2023-05-10T03:19:32.262Z,96121.13
2023-05-10T03:22:05.731Z,96119.09
2023-05-10T03:24:37.750Z,96120.06
2023-05-10T03:27:06.421Z,96122.22
2023-05-10T03:29:34.982Z,96126.63
2023-05-10T03:32:02.626Z,96131.88
2023-05-10T03:34:32.356Z,96134.03
2023-05-10T03:36:59.875Z,96135.06
2023-05-10T03:39:27.409Z,96134.94
2023-05-10T03:41:56.250Z,96138.56
2023-05-10T03:44:23.767Z,96140.19
2023-05-10T03:46:51.316Z,96150.44
2023-05-10T03:49:18.874Z,96153.66
2023-05-10T03:51:46.415Z,96159.28
2023-05-10T03:54:13.950Z,96154.81
2023-05-10T03:56:41.419Z,96158.84
2023-05-10T03:59:10.275Z,96159.41
2023-05-10T04:01:37.795Z,96155.22
2023-05-10T04:04:05.745Z,96162.03
2023-05-10T04:06:33.914Z,96164.84
2023-05-10T04:09:04.962Z,96152.69
2023-05-10T04:11:32.504Z,96154.53
2023-05-10T04:14:00.016Z,96150.25
2023-05-10T04:16:28.961Z,96161.16
2023-05-10T04:18:56.593Z,96160.34
2023-05-10T04:21:24.177Z,96154.06
2023-05-10T04:23:51.843Z,96153.47
2023-05-10T04:26:19.373Z,96158.31
2023-05-10T04:28:46.916Z,96158.31
2023-05-10T04:31:14.516Z,96153.66
2023-05-10T04:33:43.409Z,96162.31
2023-05-10T04:36:11.099Z,96156.03
2023-05-10T04:38:38.678Z,96157.06
2023-05-10T04:41:07.460Z,96155.84
2023-05-10T04:43:35.220Z,96161.09
2023-05-10T04:46:02.952Z,96158.66
2023-05-10T04:48:30.899Z,96160.50
2023-05-10T04:50:59.764Z,96164.16
2023-05-10T04:53:27.389Z,96165.53
2023-05-10T04:55:54.897Z,96161.47
2023-05-10T04:58:22.645Z,96169.69
2023-05-10T05:00:50.193Z,96166.84
2023-05-10T05:03:18.368Z,96171.88
2023-05-10T05:05:46.082Z,96172.31
2023-05-10T05:08:14.919Z,96173.13
2023-05-10T05:10:42.457Z,96174.34
2023-05-10T05:13:12.498Z,96174.34
2023-05-10T05:15:40.046Z,96181.81
2023-05-10T05:18:07.581Z,96181.00
2023-05-10T05:20:35.335Z,96173.94
2023-05-10T05:23:02.964Z,96179.97
2023-05-10T05:25:31.936Z,96185.00
2023-05-10T05:27:59.485Z,96192.44
2023-05-10T05:30:28.673Z,96192.03
2023-05-10T05:32:56.311Z,96190.41
2023-05-10T05:35:23.884Z,96194.06
2023-05-10T05:37:51.379Z,96193.63
2023-05-10T05:40:18.898Z,96197.88
2023-05-10T05:42:47.913Z,96196.03
2023-05-10T05:45:15.688Z,96201.22
2023-05-10T05:47:43.581Z,96201.22
2023-05-10T05:50:12.051Z,96204.72
2023-05-10T05:52:39.682Z,96207.78
2023-05-10T05:55:07.579Z,96203.31
2023-05-10T05:57:35.089Z,96204.13
2023-05-10T06:00:04.451Z,96210.16
2023-05-10T06:02:32.056Z,96207.34
2023-05-10T06:04:59.614Z,96215.00
2023-05-10T06:07:27.485Z,96210.53
2023-05-10T06:10:32.530Z,96215.78
2023-05-10T06:13:00.118Z,96224.13
2023-05-10T06:15:29.117Z,96217.47
2023-05-10T06:17:56.741Z,96219.28
2023-05-10T06:20:24.548Z,96215.66
2023-05-10T06:22:52.155Z,96217.38
2023-05-10T06:25:20.349Z,96215.34
2023-05-10T06:27:51.147Z,96222.44
2023-05-10T06:30:21.283Z,96230.97
2023-05-10T06:32:50.397Z,96227.16
2023-05-10T06:35:18.369Z,96235.50
2023-05-10T06:37:47.641Z,96238.69
2023-05-10T06:40:15.526Z,96242.13
2023-05-10T06:42:43.106Z,96244.53
2023-05-10T06:45:11.652Z,96249.56
2023-05-10T06:47:39.522Z,96250.16
2023-05-10T06:50:09.428Z,96248.69
2023-05-10T06:52:37.458Z,96252.56
2023-05-10T06:55:05.963Z,96247.50
2023-05-10T06:57:33.901Z,96254.00
2023-05-10T07:00:02.062Z,96253.88
2023-05-10T07:02:29.870Z,96257.94
2023-05-10T07:04:59.500Z,96259.31
2023-05-10T07:07:29.934Z,96260.72
2023-05-10T07:09:58.628Z,96263.34
2023-05-10T07:12:26.596Z,96259.47
2023-05-10T07:14:54.221Z,96266.69
2023-05-10T07:17:21.934Z,96269.50
2023-05-10T07:19:49.557Z,96270.09
2023-05-10T07:22:17.597Z,96271.47
2023-05-10T07:24:46.501Z,96273.28
2023-05-10T07:27:14.783Z,96267.81
2023-05-10T07:29:42.298Z,96270.44
2023-05-10T07:32:09.856Z,96269.63
2023-05-10T07:34:37.406Z,96269.22
2023-05-10T07:37:05.200Z,96268.91
2023-05-10T07:39:32.708Z,96276.72
2023-05-10T07:42:01.589Z,96271.25
2023-05-10T07:44:29.090Z,96277.31
2023-05-10T07:46:56.616Z,96274.25
2023-05-10T07:49:25.076Z,96273.03
2023-05-10T07:51:52.805Z,96282.50
2023-05-10T07:54:20.314Z,96271.41
2023-05-10T07:56:48.304Z,96281.69
2023-05-10T07:59:19.539Z,96284.47
2023-05-10T08:01:47.166Z,96275.88
2023-05-10T08:04:14.766Z,96274.47
2023-05-10T08:06:42.577Z,96272.91
2023-05-10T08:09:10.678Z,96279.88
2023-05-10T08:11:38.335Z,96273.06
2023-05-10T08:14:06.210Z,96277.66
2023-05-10T08:16:35.338Z,96283.50
2023-05-10T08:19:03.068Z,96281.28
2023-05-10T08:21:32.117Z,96290.22
2023-05-10T08:23:59.739Z,96283.34
2023-05-10T08:26:27.408Z,96285.38
2023-05-10T08:28:54.945Z,96293.28
2023-05-10T08:31:22.588Z,96297.53
2023-05-10T08:33:52.495Z,96303.59
2023-05-10T08:36:22.542Z,96304.84
2023-05-10T08:38:52.351Z,96298.78
2023-05-10T08:41:21.955Z,96306.88
2023-05-10T08:43:49.797Z,96296.81
2023-05-10T08:46:19.796Z,96309.16
2023-05-10T08:48:48.248Z,96297.63
2023-05-10T08:51:19.989Z,96311.09
2023-05-10T08:53:48.149Z,96301.53
2023-05-10T08:56:18.670Z,96307.28
2023-05-10T08:58:46.441Z,96302.06
2023-05-10T09:01:15.752Z,96301.53
2023-05-10T09:03:43.733Z,96314.13
2023-05-10T09:06:14.115Z,96305.47
2023-05-10T09:08:43.927Z,96317.41
2023-05-10T09:11:12.509Z,96318.88
2023-05-10T09:13:40.476Z,96321.81
2023-05-10T09:16:20.433Z,96328.66
2023-05-10T09:18:50.392Z,96322.53
2023-05-10T09:21:18.243Z,96330.50
2023-05-10T09:23:48.674Z,96339.66
2023-05-10T09:26:17.031Z,96335.66
2023-05-10T09:28:55.681Z,96344.00
2023-05-10T09:31:23.577Z,96342.38
2023-05-10T09:33:52.390Z,96339.16
2023-05-10T09:36:19.987Z,96348.09
2023-05-10T09:38:50.001Z,96341.78
2023-05-10T09:41:18.979Z,96341.34
2023-05-10T09:43:46.547Z,96343.09
2023-05-10T09:46:14.137Z,96348.28
2023-05-10T09:48:47.173Z,96346.66
2023-05-10T09:51:21.201Z,96341.50
2023-05-10T09:53:51.593Z,96340.31
2023-05-10T09:56:38.519Z,96348.34
2023-05-10T09:59:06.359Z,96337.59
2023-05-10T10:01:33.950Z,96337.75
2023-05-10T10:04:05.684Z,96339.25
2023-05-10T10:06:47.758Z,96336.16
2023-05-10T10:09:19.552Z,96339.97
2023-05-10T10:11:48.704Z,96337.56
2023-05-10T10:14:17.238Z,96335.03
2023-05-10T10:17:05.093Z,96335.94
2023-05-10T10:19:37.257Z,96330.97
2023-05-10T10:22:06.343Z,96329.00
2023-05-10T10:24:36.148Z,96334.25
2023-05-10T10:27:14.753Z,96331.06
2023-05-10T10:29:52.008Z,96329.00
2023-05-10T10:32:28.281Z,96328.22
2023-05-10T10:37:46.403Z,96330.66
2023-05-10T16:09:52.911Z,96407.03
2023-05-10T16:12:20.458Z,96410.47
2023-05-10T16:14:48.089Z,96409.47
2023-05-10T16:17:16.139Z,96405.66
2023-05-10T16:19:43.807Z,96404.47
2023-05-10T16:22:11.438Z,96408.72
2023-05-10T16:24:38.994Z,96409.41
2023-05-10T16:27:08.070Z,96410.41
2023-05-10T16:29:35.688Z,96412.19
2023-05-10T16:32:03.202Z,96415.44
2023-05-10T16:34:30.877Z,96412.81
2023-05-10T16:36:58.371Z,96422.13
2023-05-10T16:39:25.926Z,96418.72
2023-05-10T16:41:53.464Z,96413.81
2023-05-10T16:44:24.507Z,96414.41
2023-05-10T16:46:54.959Z,96413.63
2023-05-10T16:49:25.229Z,96420.25
2023-05-10T16:51:53.574Z,96421.88
2023-05-10T16:54:21.859Z,96430.56
2023-05-10T16:56:49.409Z,96429.19
2023-05-10T16:59:17.381Z,96427.56
2023-05-10T17:01:46.978Z,96427.97
2023-05-10T17:04:15.011Z,96427.97
2023-05-10T17:06:42.508Z,96431.63
2023-05-10T17:09:10.042Z,96434.09
2023-05-10T17:11:37.660Z,96434.16
2023-05-10T17:14:05.230Z,96440.22
2023-05-10T17:16:32.791Z,96442.66
2023-05-10T17:19:01.826Z,96439.81
2023-05-10T17:21:29.389Z,96441.25
2023-05-10T17:23:57.152Z,96437.25
2023-05-10T17:26:24.845Z,96437.84
2023-05-10T17:28:54.142Z,96446.53
2023-05-10T17:31:22.213Z,96438.03
2023-05-10T17:33:50.199Z,96442.50
2023-05-10T17:36:20.167Z,96441.53
2023-05-10T17:38:48.428Z,96443.56
2023-05-10T17:41:17.237Z,96444.75
2023-05-10T17:43:45.424Z,96439.50
2023-05-10T17:46:13.730Z,96439.13
2023-05-10T17:48:42.140Z,96443.78
2023-05-10T17:51:11.474Z,96442.19
2023-05-10T17:53:41.782Z,96436.72
2023-05-10T17:56:09.721Z,96441.75
2023-05-10T17:58:38.661Z,96440.75
2023-05-10T18:01:07.276Z,96448.38
2023-05-10T18:03:36.033Z,96445.19
2023-05-10T18:06:04.862Z,96452.50
2023-05-10T18:08:33.479Z,96449.28
2023-05-10T18:11:03.277Z,96450.06
2023-05-10T18:13:31.135Z,96447.22
2023-05-10T18:15:59.660Z,96448.25
2023-05-10T18:18:28.222Z,96449.28
2023-05-10T18:20:58.316Z,96449.28
2023-05-10T18:23:26.568Z,96449.28
2023-05-10T18:25:54.328Z,96455.53
2023-05-10T18:28:24.796Z,96454.16
2023-05-10T18:30:53.189Z,96450.94
2023-05-10T18:33:21.633Z,96463.47
2023-05-10T18:35:49.688Z,96461.06
2023-05-10T18:38:17.824Z,96456.63
2023-05-10T18:40:45.756Z,96461.50
2023-05-10T18:43:14.060Z,96459.47
2023-05-10T18:45:43.977Z,96456.25
2023-05-10T18:48:11.717Z,96461.94
2023-05-10T18:50:39.886Z,96462.16
2023-05-10T18:53:09.087Z,96460.38
2023-05-10T18:55:36.856Z,96461.00
2023-05-10T18:58:12.644Z,96460.63
2023-05-10T19:00:40.943Z,96470.94
2023-05-10T19:03:10.761Z,96473.56
2023-05-10T19:05:39.744Z,96474.59
2023-05-10T19:08:07.664Z,96477.22
2023-05-10T19:10:35.209Z,96473.16
2023-05-10T19:13:02.855Z,96482.47
2023-05-10T19:15:30.467Z,96478.22
2023-05-10T19:17:59.009Z,96476.44
2023-05-10T19:20:29.127Z,96478.34
2023-05-10T19:23:09.186Z,96477.22
2023-05-10T19:25:39.312Z,96482.94
2023-05-10T19:28:08.963Z,96480.53
2023-05-10T19:30:37.942Z,96482.59
2023-05-10T19:33:06.549Z,96488.66
2023-05-10T19:35:35.558Z,96485.25
2023-05-10T19:38:03.099Z,96485.06
2023-05-10T19:40:30.675Z,96485.09
2023-05-10T19:42:58.200Z,96486.53
2023-05-10T19:45:26.218Z,96490.56
2023-05-10T19:47:53.761Z,96486.53
2023-05-10T19:50:21.316Z,96490.31
2023-05-10T19:52:51.020Z,96496.00
2023-05-10T19:55:28.993Z,96489.97
2023-05-10T19:57:56.636Z,96488.38
2023-05-10T20:00:25.040Z,96489.59
2023-05-10T20:02:52.657Z,96494.03
2023-05-10T20:05:20.422Z,96489.00
2023-05-10T20:07:47.923Z,96490.41
2023-05-10T20:10:17.408Z,96492.84
2023-05-10T20:12:55.313Z,96493.66
2023-05-10T20:15:24.261Z,96493.50
2023-05-10T20:17:53.217Z,96498.34
2023-05-10T20:20:21.966Z,96498.94
2023-05-10T20:22:50.376Z,96502.19
2023-05-10T20:25:19.900Z,96501.78
2023-05-10T20:27:47.561Z,96501.19
2023-05-10T20:30:15.498Z,96503.59
2023-05-10T20:32:43.679Z,96506.66
2023-05-10T20:35:11.896Z,96504.59
2023-05-10T20:37:39.523Z,96496.19
2023-05-10T20:40:08.489Z,96502.22
2023-05-10T20:42:37.498Z,96500.19
2023-05-10T20:45:05.685Z,96494.97
2023-05-10T20:47:33.216Z,96490.50
2023-05-10T20:50:00.804Z,96493.34
2023-05-10T20:52:28.361Z,96492.34
2023-05-10T20:54:55.930Z,96491.31
2023-05-10T20:57:23.437Z,96486.88
2023-05-10T20:59:52.362Z,96491.31
2023-05-10T21:02:19.899Z,96491.31
2023-05-10T21:04:47.532Z,96488.50
2023-05-10T21:07:15.110Z,96488.91
2023-05-10T21:09:42.665Z,96481.63
2023-05-10T21:12:10.292Z,96486.50
2023-05-10T21:14:37.815Z,96481.03
2023-05-10T21:17:06.727Z,96485.69
2023-05-10T21:19:34.513Z,96479.84
2023-05-10T21:22:02.078Z,96476.03
2023-05-10T21:24:29.563Z,96472.81
2023-05-10T21:26:57.171Z,96473.78
2023-05-10T21:29:24.691Z,96474.81
2023-05-10T21:31:52.255Z,96475.00
2023-05-10T21:34:21.901Z,96477.19
2023-05-10T21:36:49.426Z,96471.34
2023-05-10T21:39:16.978Z,96480.22
2023-05-10T21:41:44.524Z,96479.81
2023-05-10T21:44:12.306Z,96477.19
2023-05-10T21:46:39.846Z,96479.19
2023-05-10T21:49:07.349Z,96479.41
2023-05-10T21:51:36.381Z,96479.41
2023-05-10T21:54:03.922Z,96474.19
2023-05-10T21:56:31.581Z,96478.59
2023-05-10T21:58:59.118Z,96479.63
2023-05-10T22:01:27.160Z,96486.91
2023-05-10T22:03:54.789Z,96482.44
2023-05-10T22:06:22.354Z,96477.44
2023-05-10T22:08:51.274Z,96484.84
2023-05-10T22:11:18.846Z,96477.59
2023-05-10T22:13:46.378Z,96473.75
2023-05-10T22:16:14.496Z,96482.84
2023-05-10T22:18:42.302Z,96472.38
2023-05-10T22:21:10.415Z,96475.41
2023-05-10T22:23:38.287Z,96482.03
2023-05-10T22:26:07.489Z,96481.66
2023-05-10T22:28:35.081Z,96483.25
2023-05-10T22:31:02.767Z,96479.41
2023-05-10T22:33:30.625Z,96478.41
2023-05-10T22:35:58.440Z,96491.09
2023-05-10T22:38:26.204Z,96479.41
2023-05-10T22:40:53.801Z,96480.63
2023-05-10T22:43:22.929Z,96484.44
2023-05-10T22:45:50.575Z,96481.06
2023-05-10T22:48:18.338Z,96486.50
2023-05-10T22:50:46.224Z,96481.03
2023-05-10T22:53:14.008Z,96485.28
2023-05-10T22:55:42.034Z,96483.25
2023-05-10T22:58:09.790Z,96482.66
2023-05-10T23:00:39.114Z,96489.28
2023-05-10T23:03:07.090Z,96486.47
2023-05-10T23:05:34.682Z,96485.69
2023-05-10T23:08:02.326Z,96482.25
2023-05-10T23:10:29.991Z,96486.50
2023-05-10T23:12:57.573Z,96484.06
2023-05-10T23:15:25.174Z,96486.28
2023-05-10T23:17:54.112Z,96483.88
2023-05-10T23:20:22.009Z,96491.72
2023-05-10T23:22:49.626Z,96488.50
2023-05-10T23:25:17.345Z,96489.28
2023-05-10T23:27:45.242Z,96491.72
2023-05-10T23:30:13.280Z,96491.72
2023-05-10T23:32:41.099Z,96488.06
2023-05-10T23:35:10.901Z,96490.09
2023-05-10T23:37:38.551Z,96490.69
2023-05-10T23:40:07.296Z,96491.50
2023-05-10T23:42:34.848Z,96489.69
2023-05-10T23:45:02.798Z,96488.91
2023-05-10T23:47:30.593Z,96493.31
2023-05-10T23:49:58.450Z,96493.91
2023-05-10T23:52:27.512Z,96491.28
2023-05-10T23:54:55.952Z,96486.88
2023-05-10T23:57:23.635Z,96483.66
2023-05-10T23:59:51.212Z,96486.84
